Time;durP1;ratioP1;P1;durP2;ratioP2;P2;SDS_P1;SDS_P2;PMS_P1;PMS_P2;Temp;Humidity;BMP_temperature;BMP_pressure;BME280_temperature;BME280_humidity;BME280_pressure;Samples;Min_cycle;Max_cycle;Signal;HPM_P1;HPM_P2
2021/11/05 00:01:51;;;;;;;5.07;3.15;;;;;;;;;;5074505;28;20040;-54
2021/11/05 00:04:17;;;;;;;5.55;2.97;;;;;;;;;;5073768;28;20095;-54
2021/11/05 00:06:43;;;;;;;4.57;3.00;;;;;;;;;;5072782;28;20385;-54
2021/11/05 00:09:09;;;;;;;5.10;3.58;;;;;;;;;;5074372;28;20025;-54
2021/11/05 00:11:35;;;;;;;5.80;3.50;;;;;;;;;;5073640;28;20389;-54
2021/11/05 00:14:01;;;;;;;7.45;3.42;;;;;;;;;;5073189;28;20111;-54
2021/11/05 00:16:27;;;;;;;7.90;3.50;;;;;;;;;;5073792;28;20094;-54
2021/11/05 00:18:53;;;;;;;5.82;3.92;;;;;;;;;;5073612;28;20550;-53
2021/11/05 00:21:19;;;;;;;5.45;3.13;;;;;;;;;;5073900;28;20099;-53
2021/11/05 00:23:45;;;;;;;6.72;3.60;;;;;;;;;;5073266;28;20308;-54
2021/11/05 00:26:11;;;;;;;7.63;3.95;;;;;;;;;;5073661;28;20025;-53
2021/11/05 00:28:37;;;;;;;5.78;3.65;;;;;;;;;;5073521;28;20545;-54
2021/11/05 00:31:03;;;;;;;5.88;3.17;;;;;;;;;;5073528;28;20071;-54
2021/11/05 00:33:29;;;;;;;6.72;3.83;;;;;;;;;;5072856;28;20588;-54
2021/11/05 00:35:54;;;;;;;6.85;4.50;;;;;;;;;;5072756;28;20029;-54
2021/11/05 00:38:20;;;;;;;6.43;3.17;;;;;;;;;;5073814;28;20021;-54
2021/11/05 00:40:46;;;;;;;8.05;3.10;;;;;;;;;;5073225;28;20078;-54
2021/11/05 00:43:12;;;;;;;5.50;3.60;;;;;;;;;;5072976;28;20105;-54
2021/11/05 00:45:38;;;;;;;5.18;3.10;;;;;;;;;;5073174;28;20028;-54
2021/11/05 00:48:04;;;;;;;5.45;3.75;;;;;;;;;;5073168;28;20020;-54
2021/11/05 00:50:31;;;;;;;4.25;3.00;;;;;;;;;;5073508;28;20032;-54
2021/11/05 00:52:57;;;;;;;5.45;3.17;;;;;;;;;;5070368;28;20037;-54
2021/11/05 00:55:24;;;;;;;8.68;3.78;;;;;;;;;;5073157;28;20584;-54
2021/11/05 00:57:51;;;;;;;7.32;3.63;;;;;;;;;;5073086;28;20460;-53
2021/11/05 01:00:17;;;;;;;6.03;3.80;;;;;;;;;;5073990;28;20028;-54
2021/11/05 01:02:45;;;;;;;3.88;2.80;;;;;;;;;;5073364;28;20024;-53
2021/11/05 01:05:12;;;;;;;10.68;4.22;;;;;;;;;;5072196;28;20036;-53
2021/11/05 01:07:39;;;;;;;8.45;4.25;;;;;;;;;;5072876;28;20028;-53
2021/11/05 01:10:05;;;;;;;7.75;3.72;;;;;;;;;;5073184;28;20151;-54
2021/11/05 01:12:31;;;;;;;4.53;2.88;;;;;;;;;;5072735;28;20040;-54
2021/11/05 01:14:57;;;;;;;8.57;3.63;;;;;;;;;;5072457;28;20020;-54
2021/11/05 01:17:24;;;;;;;7.25;4.00;;;;;;;;;;5072928;28;20359;-54
2021/11/05 01:19:50;;;;;;;6.15;3.55;;;;;;;;;;5073027;28;20028;-54
2021/11/05 01:22:16;;;;;;;4.70;2.83;;;;;;;;;;5072941;28;20119;-54
2021/11/05 01:24:42;;;;;;;5.13;3.42;;;;;;;;;;5072380;28;20111;-53
2021/11/05 01:27:09;;;;;;;12.38;3.53;;;;;;;;;;5072448;28;20446;-54
2021/11/05 01:29:35;;;;;;;7.05;3.92;;;;;;;;;;5072924;28;20066;-54
2021/11/05 01:32:01;;;;;;;5.10;2.53;;;;;;;;;;5072491;28;20093;-54
2021/11/05 01:34:28;;;;;;;8.68;3.80;;;;;;;;;;5072221;28;20024;-54
2021/11/05 01:36:54;;;;;;;5.30;3.13;;;;;;;;;;5072730;28;20020;-53
2021/11/05 01:39:20;;;;;;;4.95;3.47;;;;;;;;;;5073113;28;20031;-53
2021/11/05 01:41:46;;;;;;;3.70;2.72;;;;;;;;;;5072711;28;20456;-54
2021/11/05 01:44:12;;;;;;;5.32;3.58;;;;;;;;;;5071872;28;20029;-54
2021/11/05 01:46:42;;;;;;;5.82;3.20;;;;;;;;;;5072540;28;20031;-54
2021/11/05 01:49:12;;;;;;;8.35;3.60;;;;;;;;;;5076181;28;20021;-55
2021/11/05 01:51:38;;;;;;;5.40;3.53;;;;;;;;;;5075332;28;20032;-54
2021/11/05 01:54:06;;;;;;;5.28;3.15;;;;;;;;;;5075961;28;20078;-54
2021/11/05 01:56:32;;;;;;;3.75;2.83;;;;;;;;;;5076730;28;20077;-54
2021/11/05 01:58:58;;;;;;;6.50;3.42;;;;;;;;;;5076529;28;20066;-54
2021/11/05 02:01:24;;;;;;;5.32;3.13;;;;;;;;;;5076563;28;20082;-54
2021/11/05 02:03:50;;;;;;;4.75;3.40;;;;;;;;;;5075735;28;20446;-54
2021/11/05 02:06:20;;;;;;;5.07;3.15;;;;;;;;;;5076809;28;20052;-54
2021/11/05 02:08:46;;;;;;;5.27;2.97;;;;;;;;;;5076401;28;20128;-54
2021/11/05 02:11:12;;;;;;;5.38;3.22;;;;;;;;;;5076504;28;20286;-54
2021/11/05 02:13:41;;;;;;;7.25;3.28;;;;;;;;;;5075589;28;20056;-54
2021/11/05 02:16:10;;;;;;;5.88;3.40;;;;;;;;;;5076366;28;20024;-54
2021/11/05 02:18:35;;;;;;;6.38;3.17;;;;;;;;;;5076387;28;20358;-54
2021/11/05 02:21:02;;;;;;;3.95;2.95;;;;;;;;;;5076026;28;20023;-54
2021/11/05 02:23:28;;;;;;;6.15;3.80;;;;;;;;;;5075238;28;20362;-54
2021/11/05 02:25:55;;;;;;;5.03;3.22;;;;;;;;;;5076136;28;20021;-54
2021/11/05 02:28:21;;;;;;;6.10;3.47;;;;;;;;;;5076350;28;20024;-54
2021/11/05 02:30:48;;;;;;;5.22;3.33;;;;;;;;;;5075877;28;20040;-54
2021/11/05 02:33:14;;;;;;;4.97;3.72;;;;;;;;;;5075104;28;20043;-54
2021/11/05 02:35:40;;;;;;;12.95;3.42;;;;;;;;;;5075894;28;20024;-54
2021/11/05 02:38:07;;;;;;;7.88;3.33;;;;;;;;;;5075924;28;20029;-54
2021/11/05 02:40:33;;;;;;;7.07;3.63;;;;;;;;;;5075986;28;20385;-54
2021/11/05 02:43:01;;;;;;;11.68;3.42;;;;;;;;;;5059689;28;20087;-54
2021/11/05 02:45:27;;;;;;;3.90;2.88;;;;;;;;;;5055821;28;20025;-54
2021/11/05 02:47:55;;;;;;;5.70;3.17;;;;;;;;;;5055702;28;20351;-54
2021/11/05 02:50:21;;;;;;;5.13;2.78;;;;;;;;;;5055831;28;20028;-54
2021/11/05 02:52:47;;;;;;;3.78;2.53;;;;;;;;;;5053529;28;20033;-54
2021/11/05 02:55:14;;;;;;;8.35;4.10;;;;;;;;;;5055353;28;20052;-54
2021/11/05 02:57:41;;;;;;;4.57;3.20;;;;;;;;;;5055455;28;20434;-54
2021/11/05 03:00:09;;;;;;;5.55;2.90;;;;;;;;;;5054566;28;20025;-54
2021/11/05 03:02:35;;;;;;;6.85;3.17;;;;;;;;;;5055736;28;20078;-54
2021/11/05 03:05:01;;;;;;;7.28;3.25;;;;;;;;;;5055113;28;20029;-54
2021/11/05 03:07:27;;;;;;;6.30;3.40;;;;;;;;;;5055256;28;20484;-54
2021/11/05 03:09:53;;;;;;;4.88;3.05;;;;;;;;;;5055231;28;20037;-54
2021/11/05 03:12:19;;;;;;;5.20;2.95;;;;;;;;;;5055162;28;20037;-54
2021/11/05 03:14:45;;;;;;;3.55;2.63;;;;;;;;;;5054355;28;20025;-54
2021/11/05 03:17:12;;;;;;;3.45;2.60;;;;;;;;;;5055033;28;20021;-54
2021/11/05 03:19:39;;;;;;;5.20;3.60;;;;;;;;;;5055247;28;20096;-54
2021/11/05 03:22:05;;;;;;;3.60;2.70;;;;;;;;;;5054817;28;20025;-54
2021/11/05 03:24:31;;;;;;;6.72;3.08;;;;;;;;;;5065342;28;20072;-54
2021/11/05 03:26:57;;;;;;;6.78;3.45;;;;;;;;;;5074957;28;20035;-54
2021/11/05 03:29:23;;;;;;;4.75;3.15;;;;;;;;;;5075130;28;20024;-54
2021/11/05 03:31:49;;;;;;;6.38;3.38;;;;;;;;;;5074806;28;20036;-54
2021/11/05 03:34:15;;;;;;;5.50;2.92;;;;;;;;;;5073929;28;20020;-53
2021/11/05 03:36:41;;;;;;;7.32;3.80;;;;;;;;;;5074403;28;20412;-54
2021/11/05 03:39:08;;;;;;;4.78;3.10;;;;;;;;;;5074790;28;20024;-53
2021/11/05 03:41:34;;;;;;;5.18;3.38;;;;;;;;;;5075092;28;20115;-54
2021/11/05 03:44:01;;;;;;;7.45;3.28;;;;;;;;;;5074077;28;20081;-54
2021/11/05 03:46:27;;;;;;;5.57;3.53;;;;;;;;;;5074320;28;20025;-54
2021/11/05 03:48:54;;;;;;;4.47;3.10;;;;;;;;;;5074466;28;20037;-54
2021/11/05 03:51:20;;;;;;;5.18;3.50;;;;;;;;;;5072689;28;20309;-54
2021/11/05 03:53:46;;;;;;;6.78;3.03;;;;;;;;;;5058337;28;20456;-54
2021/11/05 03:56:12;;;;;;;6.10;3.33;;;;;;;;;;5054183;28;20044;-54
2021/11/05 03:58:38;;;;;;;6.70;4.05;;;;;;;;;;5054172;28;20431;-53
2021/11/05 04:01:04;;;;;;;7.10;4.00;;;;;;;;;;5053913;28;20070;-54
2021/11/05 04:03:30;;;;;;;5.43;3.42;;;;;;;;;;5053404;28;20033;-54
2021/11/05 04:05:56;;;;;;;6.05;3.05;;;;;;;;;;5054038;28;20493;-53
2021/11/05 04:08:22;;;;;;;6.68;3.35;;;;;;;;;;5053774;28;20268;-54
2021/11/05 04:10:48;;;;;;;5.68;3.05;;;;;;;;;;5052938;28;20024;-54
2021/11/05 04:13:14;;;;;;;5.93;3.22;;;;;;;;;;5053244;28;20028;-54
2021/11/05 04:15:41;;;;;;;6.40;4.00;;;;;;;;;;5053829;28;20153;-54
2021/11/05 04:18:07;;;;;;;6.63;3.65;;;;;;;;;;5054126;28;20025;-54
2021/11/05 04:20:34;;;;;;;5.38;3.22;;;;;;;;;;5053612;28;20087;-53
2021/11/05 04:23:00;;;;;;;5.03;3.30;;;;;;;;;;5053085;28;20108;-54
2021/11/05 04:25:26;;;;;;;4.07;2.72;;;;;;;;;;5070773;28;20522;-54
2021/11/05 04:27:52;;;;;;;5.20;2.80;;;;;;;;;;5073496;28;20034;-54
2021/11/05 04:30:18;;;;;;;10.85;3.97;;;;;;;;;;5073346;28;20029;-54
2021/11/05 04:32:44;;;;;;;8.13;3.72;;;;;;;;;;5073479;28;20047;-54
2021/11/05 04:35:11;;;;;;;7.75;3.90;;;;;;;;;;5073013;28;20024;-54
2021/11/05 04:37:37;;;;;;;5.45;3.08;;;;;;;;;;5073471;28;20025;-54
2021/11/05 04:40:04;;;;;;;5.65;3.78;;;;;;;;;;5073357;28;20021;-54
2021/11/05 04:42:30;;;;;;;6.38;3.20;;;;;;;;;;5073398;28;20334;-54
2021/11/05 04:44:56;;;;;;;5.28;2.97;;;;;;;;;;5072077;28;20488;-54
2021/11/05 04:47:22;;;;;;;6.68;3.90;;;;;;;;;;5073518;28;20025;-54
2021/11/05 04:49:48;;;;;;;7.53;3.17;;;;;;;;;;5073246;28;20244;-54
2021/11/05 04:52:14;;;;;;;7.93;4.43;;;;;;;;;;5071391;28;20124;-53
2021/11/05 04:54:39;;;;;;;9.65;3.60;;;;;;;;;;5072780;28;20111;-54
2021/11/05 04:57:06;;;;;;;6.50;4.15;;;;;;;;;;5073336;28;20396;-54
2021/11/05 04:59:32;;;;;;;5.13;3.58;;;;;;;;;;5073446;28;20023;-54
2021/11/05 05:01:58;;;;;;;8.38;4.45;;;;;;;;;;5073319;28;20025;-54
2021/11/05 05:04:24;;;;;;;6.38;3.83;;;;;;;;;;5072477;28;20101;-54
2021/11/05 05:06:50;;;;;;;10.43;4.28;;;;;;;;;;5070717;28;20438;-53
2021/11/05 05:09:16;;;;;;;10.35;4.35;;;;;;;;;;5070316;28;20016;-54
2021/11/05 05:11:45;;;;;;;10.00;4.93;;;;;;;;;;5072310;28;20044;-54
2021/11/05 05:14:12;;;;;;;8.38;4.18;;;;;;;;;;5072342;28;20163;-53
2021/11/05 05:16:38;;;;;;;9.07;5.03;;;;;;;;;;5072679;28;20028;-54
2021/11/05 05:19:04;;;;;;;6.78;3.90;;;;;;;;;;5072693;28;20478;-54
2021/11/05 05:21:30;;;;;;;12.80;4.88;;;;;;;;;;5072831;28;20040;-54
2021/11/05 05:23:56;;;;;;;8.50;4.90;;;;;;;;;;5071474;28;20469;-53
2021/11/05 05:26:22;;;;;;;9.15;4.68;;;;;;;;;;5071632;28;20024;-53
2021/11/05 05:28:48;;;;;;;9.93;4.22;;;;;;;;;;5066660;28;20032;-54
2021/11/05 05:31:14;;;;;;;8.13;3.50;;;;;;;;;;5072334;28;20119;-54
2021/11/05 05:33:42;;;;;;;8.15;4.05;;;;;;;;;;5070476;28;20045;-54
2021/11/05 05:36:08;;;;;;;7.50;4.53;;;;;;;;;;5071100;28;20442;-54
2021/11/05 05:38:35;;;;;;;8.20;4.30;;;;;;;;;;5072534;28;20032;-54
2021/11/05 05:41:01;;;;;;;7.88;4.45;;;;;;;;;;5069284;28;20020;-54
2021/11/05 05:43:27;;;;;;;9.45;5.15;;;;;;;;;;5063881;28;20051;-54
2021/11/05 05:45:53;;;;;;;8.82;4.68;;;;;;;;;;5063265;28;20048;-54
2021/11/05 05:48:19;;;;;;;8.98;4.22;;;;;;;;;;5071929;28;20469;-54
2021/11/05 05:50:45;;;;;;;6.50;4.03;;;;;;;;;;5072710;28;20024;-55
2021/11/05 05:53:11;;;;;;;9.07;4.80;;;;;;;;;;5071984;28;20043;-54
2021/11/05 05:55:39;;;;;;;12.65;4.53;;;;;;;;;;5072426;28;20039;-54
2021/11/05 05:58:06;;;;;;;10.57;5.13;;;;;;;;;;5072613;28;20055;-54
2021/11/05 06:00:32;;;;;;;7.35;4.03;;;;;;;;;;5071110;28;20016;-54
2021/11/05 06:02:58;;;;;;;11.10;4.85;;;;;;;;;;5071702;28;20336;-54
2021/11/05 06:05:24;;;;;;;7.38;4.25;;;;;;;;;;5072344;28;20020;-53
2021/11/05 06:07:50;;;;;;;7.93;4.45;;;;;;;;;;5072584;28;20027;-54
2021/11/05 06:10:16;;;;;;;6.78;4.18;;;;;;;;;;5072087;28;20405;-54
2021/11/05 06:12:43;;;;;;;11.15;4.78;;;;;;;;;;5072599;28;20218;-54
2021/11/05 06:15:09;;;;;;;8.57;4.75;;;;;;;;;;5071311;28;20021;-54
2021/11/05 06:17:35;;;;;;;8.38;4.40;;;;;;;;;;5072390;28;20473;-54
2021/11/05 06:20:04;;;;;;;9.70;5.63;;;;;;;;;;5072071;28;20021;-54
2021/11/05 06:22:30;;;;;;;9.00;5.00;;;;;;;;;;5072731;28;20117;-54
2021/11/05 06:24:57;;;;;;;7.45;4.50;;;;;;;;;;5056990;28;20053;-54
2021/11/05 06:27:24;;;;;;;7.43;4.80;;;;;;;;;;5052355;28;20037;-54
2021/11/05 06:29:50;;;;;;;12.02;4.95;;;;;;;;;;5052463;28;20044;-54
2021/11/05 06:32:16;;;;;;;12.02;4.82;;;;;;;;;;5051877;28;20041;-54
2021/11/05 06:34:42;;;;;;;10.18;4.75;;;;;;;;;;5052515;28;20035;-54
2021/11/05 06:37:08;;;;;;;8.82;4.65;;;;;;;;;;5055990;28;20025;-54
2021/11/05 06:39:34;;;;;;;7.60;4.13;;;;;;;;;;5056472;28;20045;-54
2021/11/05 06:42:00;;;;;;;8.05;4.28;;;;;;;;;;5055557;28;20476;-54
2021/11/05 06:44:27;;;;;;;7.32;4.40;;;;;;;;;;5055319;28;20066;-54
2021/11/05 06:46:53;;;;;;;8.45;4.35;;;;;;;;;;5055734;28;20458;-54
2021/11/05 06:49:19;;;;;;;7.90;4.20;;;;;;;;;;5055926;28;20017;-54
2021/11/05 06:51:45;;;;;;;6.05;3.65;;;;;;;;;;5055802;28;20040;-54
2021/11/05 06:54:11;;;;;;;12.50;5.40;;;;;;;;;;5055267;28;20104;-54
2021/11/05 06:56:37;;;;;;;9.88;4.35;;;;;;;;;;5055616;28;20029;-54
2021/11/05 06:59:04;;;;;;;17.33;4.40;;;;;;;;;;5054250;28;20025;-54
2021/11/05 07:01:30;;;;;;;8.60;4.20;;;;;;;;;;5055448;28;20021;-54
2021/11/05 07:03:56;;;;;;;6.78;4.45;;;;;;;;;;5054805;28;20370;-54
2021/11/05 07:06:23;;;;;;;7.47;4.10;;;;;;;;;;5055085;28;20469;-54
2021/11/05 07:08:49;;;;;;;10.45;4.47;;;;;;;;;;5055488;28;20039;-54
2021/11/05 07:11:15;;;;;;;10.15;4.97;;;;;;;;;;5055099;28;20021;-54
2021/11/05 07:13:41;;;;;;;11.98;5.18;;;;;;;;;;5054836;28;20036;-54
2021/11/05 07:16:07;;;;;;;10.88;5.22;;;;;;;;;;5055350;28;20017;-54
2021/11/05 07:18:33;;;;;;;10.30;5.90;;;;;;;;;;5055191;28;20443;-54
2021/11/05 07:21:03;;;;;;;9.23;5.22;;;;;;;;;;5055216;28;20031;-54
2021/11/05 07:23:31;;;;;;;12.45;5.07;;;;;;;;;;5054465;28;20025;-54
2021/11/05 07:25:57;;;;;;;9.48;4.03;;;;;;;;;;5054901;28;20450;-54
2021/11/05 07:28:23;;;;;;;12.93;5.38;;;;;;;;;;5054662;28;20058;-54
2021/11/05 07:30:49;;;;;;;11.32;4.25;;;;;;;;;;5054939;28;20108;-54
2021/11/05 07:33:15;;;;;;;10.88;5.07;;;;;;;;;;5054173;28;20060;-54
2021/11/05 07:35:41;;;;;;;7.78;3.78;;;;;;;;;;5054785;28;20102;-54
2021/11/05 07:38:07;;;;;;;6.68;4.10;;;;;;;;;;5055199;28;20074;-54
2021/11/05 07:40:33;;;;;;;8.05;4.13;;;;;;;;;;5054927;28;20025;-54
2021/11/05 07:43:00;;;;;;;7.57;4.05;;;;;;;;;;5054124;28;20025;-54
2021/11/05 07:45:26;;;;;;;10.85;5.28;;;;;;;;;;5054772;28;20090;-54
2021/11/05 07:47:56;;;;;;;10.52;4.95;;;;;;;;;;5054583;28;20029;-54
2021/11/05 07:50:22;;;;;;;13.30;4.47;;;;;;;;;;5054990;28;20029;-54
2021/11/05 07:52:48;;;;;;;7.72;4.45;;;;;;;;;;5054374;28;20067;-54
2021/11/05 07:55:15;;;;;;;11.85;5.05;;;;;;;;;;5054216;28;20029;-54
2021/11/05 07:57:41;;;;;;;8.90;4.47;;;;;;;;;;5054351;28;20162;-54
2021/11/05 08:00:09;;;;;;;9.63;4.18;;;;;;;;;;5053139;28;20304;-54
2021/11/05 08:02:35;;;;;;;9.00;4.60;;;;;;;;;;5054050;28;20444;-54
2021/11/05 08:05:01;;;;;;;7.72;4.25;;;;;;;;;;5053630;28;20017;-54
2021/11/05 08:07:27;;;;;;;8.55;4.78;;;;;;;;;;5054297;28;20059;-54
2021/11/05 08:09:53;;;;;;;8.63;4.10;;;;;;;;;;5054019;28;20052;-54
2021/11/05 08:12:19;;;;;;;11.85;4.70;;;;;;;;;;5054027;28;20132;-54
2021/11/05 08:14:45;;;;;;;8.93;4.20;;;;;;;;;;5051952;28;20032;-54
2021/11/05 08:17:11;;;;;;;9.38;4.53;;;;;;;;;;5054512;28;20025;-54
2021/11/05 08:19:37;;;;;;;7.70;3.88;;;;;;;;;;5054059;28;20029;-54
2021/11/05 08:22:04;;;;;;;12.38;4.35;;;;;;;;;;5053787;28;20359;-54
2021/11/05 08:24:30;;;;;;;8.88;3.95;;;;;;;;;;5053294;28;20024;-54
2021/11/05 08:26:56;;;;;;;5.97;4.15;;;;;;;;;;5054239;28;20112;-54
2021/11/05 08:29:22;;;;;;;7.60;4.03;;;;;;;;;;5053690;28;20017;-54
2021/11/05 08:31:48;;;;;;;9.52;4.00;;;;;;;;;;5053693;28;20183;-54
2021/11/05 08:34:14;;;;;;;10.52;4.45;;;;;;;;;;5052965;28;20032;-54
2021/11/05 08:36:40;;;;;;;9.30;4.20;;;;;;;;;;5053533;28;20439;-54
2021/11/05 08:39:07;;;;;;;9.48;4.35;;;;;;;;;;5053662;28;20509;-54
2021/11/05 08:41:33;;;;;;;5.75;3.72;;;;;;;;;;5053385;28;20124;-54
2021/11/05 08:43:59;;;;;;;6.80;2.95;;;;;;;;;;5052668;28;20501;-54
2021/11/05 08:46:26;;;;;;;7.40;3.85;;;;;;;;;;5053601;28;20045;-54
2021/11/05 08:48:53;;;;;;;5.90;2.85;;;;;;;;;;5053518;28;20447;-54
2021/11/05 08:51:21;;;;;;;6.45;3.28;;;;;;;;;;5053570;28;20465;-54
2021/11/05 08:53:47;;;;;;;5.90;2.70;;;;;;;;;;5052376;28;20063;-54
2021/11/05 08:56:13;;;;;;;5.78;3.00;;;;;;;;;;5053334;28;20033;-54
2021/11/05 08:58:39;;;;;;;9.38;2.85;;;;;;;;;;5050935;28;20083;-54
2021/11/05 09:01:06;;;;;;;7.75;2.58;;;;;;;;;;5053503;28;20025;-54
2021/11/05 09:03:32;;;;;;;6.00;2.83;;;;;;;;;;5052720;28;20029;-54
2021/11/05 09:05:58;;;;;;;3.58;2.20;;;;;;;;;;5055572;28;20025;-54
2021/11/05 09:08:29;;;;;;;5.05;2.40;;;;;;;;;;5069882;28;20025;-54
2021/11/05 09:10:55;;;;;;;;;;;;;;;;;;5065274;28;20035;-54
2021/11/05 09:13:21;;;;;;;4.00;2.15;;;;;;;;;;5072158;28;19912;-54
2021/11/05 09:15:47;;;;;;;3.75;2.08;;;;;;;;;;5071074;28;20032;-54
2021/11/05 09:18:13;;;;;;;4.03;2.45;;;;;;;;;;5065338;28;20233;-54
2021/11/05 09:20:39;;;;;;;3.80;1.67;;;;;;;;;;5072084;28;20063;-54
2021/11/05 09:23:06;;;;;;;4.50;2.08;;;;;;;;;;5066251;28;20029;-54
2021/11/05 09:25:32;;;;;;;3.63;1.60;;;;;;;;;;5066357;28;20109;-54
2021/11/05 09:27:58;;;;;;;3.83;1.98;;;;;;;;;;5063039;28;20107;-54
2021/11/05 09:30:24;;;;;;;3.30;1.70;;;;;;;;;;5072481;28;20095;-54
2021/11/05 09:32:53;;;;;;;2.10;1.50;;;;;;;;;;5072088;28;20039;-55
2021/11/05 09:35:19;;;;;;;2.53;1.50;;;;;;;;;;5071683;28;20029;-54
2021/11/05 09:37:45;;;;;;;2.55;1.50;;;;;;;;;;5072450;28;20032;-54
2021/11/05 09:40:13;;;;;;;1.80;1.30;;;;;;;;;;5071879;28;20108;-54
2021/11/05 09:42:41;;;;;;;2.55;1.30;;;;;;;;;;5072105;28;20442;-54
2021/11/05 09:45:07;;;;;;;2.05;1.25;;;;;;;;;;5071864;28;20025;-54
2021/11/05 09:47:34;;;;;;;1.33;1.13;;;;;;;;;;5072406;28;20112;-54
2021/11/05 09:50:00;;;;;;;1.45;1.10;;;;;;;;;;5062498;28;20012;-54
2021/11/05 09:52:27;;;;;;;1.50;1.00;;;;;;;;;;5071949;28;20036;-54
2021/11/05 09:54:56;;;;;;;1.25;1.05;;;;;;;;;;5071831;28;20167;-54
2021/11/05 09:57:22;;;;;;;1.17;0.95;;;;;;;;;;5066007;28;20963;-54
2021/11/05 09:59:48;;;;;;;2.05;1.17;;;;;;;;;;5065482;28;20033;-54
2021/11/05 10:02:15;;;;;;;6.43;1.00;;;;;;;;;;5064923;28;20029;-54
2021/11/05 10:04:41;;;;;;;3.67;0.82;;;;;;;;;;5063831;28;20358;-54
2021/11/05 10:07:09;;;;;;;1.30;0.90;;;;;;;;;;5061798;28;20032;-54
2021/11/05 10:09:55;;;;;;;2.50;0.85;;;;;;;;;;5064281;28;20040;-54
2021/11/05 10:12:28;;;;;;;1.17;1.00;;;;;;;;;;5063920;28;20144;-54
2021/11/05 10:15:00;;;;;;;1.67;1.10;;;;;;;;;;5064490;28;20029;-54
2021/11/05 10:17:26;;;;;;;3.38;1.10;;;;;;;;;;5071487;28;20029;-54
2021/11/05 10:19:55;;;;;;;1.27;1.00;;;;;;;;;;5060611;28;20017;-54
2021/11/05 10:22:34;;;;;;;1.50;0.98;;;;;;;;;;5056188;28;20417;-54
2021/11/05 10:25:19;;;;;;;1.52;0.90;;;;;;;;;;5054720;28;20071;-54
2021/11/05 10:27:46;;;;;;;1.00;0.88;;;;;;;;;;5065566;28;20032;-54
2021/11/05 10:30:12;;;;;;;2.70;1.27;;;;;;;;;;5075928;28;20078;-54
2021/11/05 10:32:42;;;;;;;1.13;1.02;;;;;;;;;;5075776;28;20032;-54
2021/11/05 10:35:12;;;;;;;2.35;1.50;;;;;;;;;;5069996;28;20044;-54
2021/11/05 10:37:41;;;;;;;1.58;1.00;;;;;;;;;;5057930;28;20336;-54
2021/11/05 10:40:08;;;;;;;1.00;0.73;;;;;;;;;;5060990;28;20354;-54
2021/11/05 10:42:35;;;;;;;1.15;1.05;;;;;;;;;;5066196;28;20033;-54
2021/11/05 10:45:14;;;;;;;2.13;1.02;;;;;;;;;;5072702;28;20450;-55
2021/11/05 10:47:52;;;;;;;1.17;1.08;;;;;;;;;;5068387;28;20476;-54
2021/11/05 10:50:19;;;;;;;1.63;1.02;;;;;;;;;;5066144;28;20028;-54
2021/11/05 10:52:58;;;;;;;0.77;0.60;;;;;;;;;;5060985;28;20130;-54
2021/11/05 10:55:24;;;;;;;1.40;0.88;;;;;;;;;;5074984;28;20020;-54
2021/11/05 10:57:51;;;;;;;0.88;0.80;;;;;;;;;;5075531;28;20035;-54
2021/11/05 11:00:26;;;;;;;2.30;1.02;;;;;;;;;;5075157;28;20397;-54
2021/11/05 11:02:52;;;;;;;1.98;1.15;;;;;;;;;;5073406;28;20107;-54
2021/11/05 11:05:35;;;;;;;1.48;1.20;;;;;;;;;;5074811;28;20051;-54
2021/11/05 11:08:02;;;;;;;4.40;2.40;;;;;;;;;;5075439;28;20021;-54
2021/11/05 11:10:36;;;;;;;5.15;2.58;;;;;;;;;;5074644;28;20019;-54
2021/11/05 11:13:02;;;;;;;2.67;1.88;;;;;;;;;;5074942;28;20033;-54
2021/11/05 11:15:28;;;;;;;4.10;2.42;;;;;;;;;;5075330;28;20032;-54
2021/11/05 11:17:54;;;;;;;6.22;2.58;;;;;;;;;;5074479;28;20024;-54
2021/11/05 11:20:34;;;;;;;6.25;3.15;;;;;;;;;;5074207;28;20035;-54
2021/11/05 11:23:01;;;;;;;10.68;2.53;;;;;;;;;;5074719;28;20060;-54
2021/11/05 11:25:27;;;;;;;3.53;2.42;;;;;;;;;;5055925;28;20103;-54
2021/11/05 11:27:53;;;;;;;4.95;2.45;;;;;;;;;;5055054;28;20029;-54
2021/11/05 11:30:20;;;;;;;3.17;1.98;;;;;;;;;;5054486;28;20324;-54
2021/11/05 11:32:52;;;;;;;3.67;2.78;;;;;;;;;;5054228;28;20040;-54
2021/11/05 11:35:18;;;;;;;8.25;3.75;;;;;;;;;;5054568;28;20048;-54
2021/11/05 11:37:45;;;;;;;4.82;3.05;;;;;;;;;;5054531;28;20039;-53
2021/11/05 11:40:12;;;;;;;5.95;3.33;;;;;;;;;;5054100;28;20025;-54
2021/11/05 11:42:38;;;;;;;3.28;2.75;;;;;;;;;;5054681;28;20029;-54
2021/11/05 11:45:12;;;;;;;5.70;3.17;;;;;;;;;;5053637;28;20100;-54
2021/11/05 11:47:45;;;;;;;4.47;2.70;;;;;;;;;;5054610;28;20075;-54
2021/11/05 11:50:28;;;;;;;5.95;3.22;;;;;;;;;;5054651;28;20025;-54
2021/11/05 11:53:00;;;;;;;4.57;2.72;;;;;;;;;;5054088;28;20037;-54
2021/11/05 11:55:26;;;;;;;7.72;2.75;;;;;;;;;;5053659;28;20112;-54
2021/11/05 11:58:08;;;;;;;4.78;2.80;;;;;;;;;;5053938;28;20455;-54
2021/11/05 12:00:35;;;;;;;5.07;2.72;;;;;;;;;;5054411;28;20044;-55
2021/11/05 12:03:02;;;;;;;5.45;2.55;;;;;;;;;;5052019;28;20466;-55
2021/11/05 12:05:31;;;;;;;4.82;3.20;;;;;;;;;;5054081;28;20056;-54
2021/11/05 12:08:12;;;;;;;6.45;2.55;;;;;;;;;;5054289;28;20029;-55
2021/11/05 12:10:39;;;;;;;4.95;2.97;;;;;;;;;;5053885;28;20049;-55
2021/11/05 12:13:24;;;;;;;7.85;2.85;;;;;;;;;;5053118;28;20040;-54
2021/11/05 12:16:09;;;;;;;4.88;2.55;;;;;;;;;;5053774;28;20024;-54
2021/11/05 12:18:53;;;;;;;4.40;2.67;;;;;;;;;;5053888;28;20021;-54
2021/11/05 12:21:19;;;;;;;3.10;1.95;;;;;;;;;;5053813;28;20417;-54
2021/11/05 12:23:45;;;;;;;4.18;2.58;;;;;;;;;;5052780;28;20114;-54
2021/11/05 12:26:11;;;;;;;4.60;2.75;;;;;;;;;;5053929;28;20025;-54
2021/11/05 12:28:41;;;;;;;7.28;3.63;;;;;;;;;;5053590;28;20363;-54
2021/11/05 12:31:40;;;;;;;4.47;2.58;;;;;;;;;;5053550;28;20443;-54
2021/11/05 12:34:18;;;;;;;4.43;2.58;;;;;;;;;;5051769;28;20146;-54
2021/11/05 12:36:46;;;;;;;4.65;2.95;;;;;;;;;;5053244;28;20363;-55
2021/11/05 12:39:11;;;;;;;3.53;2.53;;;;;;;;;;5053771;28;20029;-54
2021/11/05 12:41:56;;;;;;;3.55;2.17;;;;;;;;;;5053415;28;20113;-53
2021/11/05 12:44:22;;;;;;;3.05;1.45;;;;;;;;;;5053002;28;20029;-53
2021/11/05 12:46:48;;;;;;;1.70;1.33;;;;;;;;;;5053014;28;20024;-54
2021/11/05 12:49:16;;;;;;;1.60;1.08;;;;;;;;;;5053391;28;20083;-54
2021/11/05 12:51:45;;;;;;;1.42;1.13;;;;;;;;;;5053322;28;20032;-55
2021/11/05 12:54:16;;;;;;;1.30;1.05;;;;;;;;;;5052353;28;20087;-54
2021/11/05 12:56:46;;;;;;;2.22;1.35;;;;;;;;;;5053219;28;20021;-54
2021/11/05 12:59:12;;;;;;;;;;;;;;;;;;5053607;28;20036;-54
2021/11/05 13:01:38;;;;;;;2.75;1.40;;;;;;;;;;5051116;28;19912;-54
2021/11/05 13:04:09;;;;;;;2.70;1.67;;;;;;;;;;5053110;28;20116;-54
2021/11/05 13:06:36;;;;;;;2.40;1.58;;;;;;;;;;5053138;28;20033;-54
2021/11/05 13:09:03;;;;;;;2.25;0.90;;;;;;;;;;5052790;28;20037;-54
2021/11/05 13:11:29;;;;;;;1.25;1.05;;;;;;;;;;5052964;28;20434;-55
2021/11/05 13:13:56;;;;;;;1.80;1.45;;;;;;;;;;5052158;28;20112;-54
2021/11/05 13:16:22;;;;;;;2.60;1.00;;;;;;;;;;5052399;28;20017;-54
2021/11/05 13:18:49;;;;;;;1.00;0.90;;;;;;;;;;5052890;28;20454;-54
2021/11/05 13:21:18;;;;;;;2.22;1.40;;;;;;;;;;5052583;28;20017;-54
2021/11/05 13:23:45;;;;;;;1.05;0.85;;;;;;;;;;5051282;28;20429;-54
2021/11/05 13:26:11;;;;;;;0.80;0.77;;;;;;;;;;5052912;28;20025;-54
2021/11/05 13:28:37;;;;;;;0.65;0.65;;;;;;;;;;5052588;28;20082;-54
2021/11/05 13:31:04;;;;;;;1.05;0.82;;;;;;;;;;5052109;28;20112;-54
2021/11/05 13:33:30;;;;;;;1.65;0.85;;;;;;;;;;5052091;28;20033;-54
2021/11/05 13:35:57;;;;;;;1.10;0.95;;;;;;;;;;5052599;28;20167;-54
2021/11/05 13:38:24;;;;;;;1.27;1.00;;;;;;;;;;5052447;28;20374;-55
2021/11/05 13:40:51;;;;;;;2.75;1.75;;;;;;;;;;5051836;28;20354;-54
2021/11/05 13:43:18;;;;;;;2.28;1.50;;;;;;;;;;5051303;28;20585;-54
2021/11/05 13:45:46;;;;;;;1.73;1.50;;;;;;;;;;5052204;28;20021;-54
2021/11/05 13:48:17;;;;;;;1.58;1.48;;;;;;;;;;5052871;28;20024;-54
2021/11/05 13:50:43;;;;;;;1.90;1.10;;;;;;;;;;5052661;28;20111;-54
2021/11/05 13:53:09;;;;;;;1.33;1.20;;;;;;;;;;5051423;28;20075;-54
2021/11/05 13:55:39;;;;;;;1.83;1.40;;;;;;;;;;5052775;28;20021;-54
2021/11/05 13:58:06;;;;;;;2.88;1.50;;;;;;;;;;5052662;28;20459;-54
2021/11/05 14:00:43;;;;;;;3.22;1.70;;;;;;;;;;5051745;28;20033;-54
2021/11/05 14:03:10;;;;;;;2.53;1.65;;;;;;;;;;5049980;28;20078;-54
2021/11/05 14:05:36;;;;;;;3.15;1.60;;;;;;;;;;5052254;28;20358;-54
2021/11/05 14:08:11;;;;;;;2.35;1.70;;;;;;;;;;5051764;28;20120;-54
2021/11/05 14:10:47;;;;;;;2.78;1.40;;;;;;;;;;5052414;28;20052;-54
2021/11/05 14:13:13;;;;;;;2.60;2.05;;;;;;;;;;5051583;28;20344;-54
2021/11/05 14:15:39;;;;;;;2.88;1.77;;;;;;;;;;5052092;28;20032;-54
2021/11/05 14:18:12;;;;;;;4.18;2.10;;;;;;;;;;5051667;28;20352;-54
2021/11/05 14:20:38;;;;;;;2.00;1.58;;;;;;;;;;5052210;28;20029;-54
2021/11/05 14:23:04;;;;;;;2.45;1.73;;;;;;;;;;5051113;28;20061;-54
2021/11/05 14:25:30;;;;;;;5.72;1.98;;;;;;;;;;5052466;28;20029;-54
2021/11/05 14:27:57;;;;;;;2.05;1.77;;;;;;;;;;5052149;28;20033;-54
2021/11/05 14:30:24;;;;;;;5.85;2.30;;;;;;;;;;5051448;28;20037;-54
2021/11/05 14:32:53;;;;;;;3.60;2.15;;;;;;;;;;5052050;28;20033;-54
2021/11/05 14:35:20;;;;;;;5.22;2.20;;;;;;;;;;5052164;28;20033;-53
2021/11/05 14:37:51;;;;;;;5.65;2.95;;;;;;;;;;5051718;28;20474;-54
2021/11/05 14:40:30;;;;;;;3.67;2.38;;;;;;;;;;5052225;28;20029;-54
2021/11/05 14:42:58;;;;;;;3.67;2.60;;;;;;;;;;5050958;28;20546;-54
2021/11/05 14:45:28;;;;;;;6.85;2.70;;;;;;;;;;5051639;28;20040;-54